Time;durP1;ratioP1;P1;durP2;ratioP2;P2;SDS_P1;SDS_P2;PMS_P1;PMS_P2;Temp;Humidity;BMP_temperature;BMP_pressure;BME280_temperature;BME280_humidity;BME280_pressure;Samples;Min_cycle;Max_cycle;Signal;HPM_P1;HPM_P2
2023/10/11 04:42:39;;;;;;;11.37;5.87;;;;;;;;;;4951154;23;20559;-78
2023/10/11 04:45:07;;;;;;;10.63;4.43;;;;;;;;;;4980717;28;20797;-78
2023/10/11 04:50:31;;;;;;;7.90;5.60;;;;;;;;;;5136126;27;1492182;-79
2023/10/11 04:52:58;;;;;;;7.57;5.00;;;;;;;;;;5167962;27;20532;-78
2023/10/11 04:55:34;;;;;;;8.40;5.00;;;;;;;;;;5164244;27;20460;-77
2023/10/11 04:58:04;;;;;;;11.40;5.03;;;;;;;;;;5158284;27;20533;-78
2023/10/11 05:00:43;;;;;;;6.97;4.10;;;;;;;;;;5156782;27;20517;-77
2023/10/11 05:03:12;;;;;;;22.47;7.90;;;;;;;;;;5156161;27;20484;-78
2023/10/11 05:05:58;;;;;;;9.50;5.33;;;;;;;;;;5157759;27;20772;-77
2023/10/11 05:08:50;;;;;;;11.07;5.27;;;;;;;;;;5159886;27;20478;-78
2023/10/11 05:11:24;;;;;;;6.87;4.77;;;;;;;;;;5159637;27;20441;-78
2023/10/11 05:14:07;;;;;;;10.00;4.27;;;;;;;;;;5159373;27;20673;-78
2023/10/11 05:16:44;;;;;;;11.50;5.17;;;;;;;;;;5154083;27;20495;-78
2023/10/11 05:19:14;;;;;;;10.90;4.60;;;;;;;;;;5153937;27;20449;-78
2023/10/11 05:21:43;;;;;;;10.37;4.93;;;;;;;;;;5155873;27;20524;-77
2023/10/11 05:27:35;;;;;;;9.40;4.80;;;;;;;;;;5155333;27;20481;-77
2023/10/11 05:30:26;;;;;;;11.20;4.80;;;;;;;;;;5150019;27;21126;-77
2023/10/11 05:32:58;;;;;;;9.17;5.33;;;;;;;;;;5152180;27;20466;-78
2023/10/11 05:35:53;;;;;;;8.77;6.37;;;;;;;;;;5154224;27;20463;-77
2023/10/11 05:52:13;;;;;;;9.00;5.27;;;;;;;;;;5153425;27;20436;-79
2023/10/11 05:54:43;;;;;;;8.37;4.60;;;;;;;;;;5151910;27;20453;-80
2023/10/11 05:57:13;;;;;;;11.57;4.57;;;;;;;;;;5157371;27;20464;-79
2023/10/11 05:59:42;;;;;;;8.40;4.37;;;;;;;;;;5158749;27;20455;-79
2023/10/11 06:02:14;;;;;;;6.73;4.40;;;;;;;;;;5140048;27;20445;-77
2023/10/11 06:04:42;;;;;;;6.53;3.90;;;;;;;;;;5141285;27;20433;-79
2023/10/11 06:07:12;;;;;;;9.03;5.10;;;;;;;;;;5138826;27;20458;-77
2023/10/11 06:09:43;;;;;;;9.90;4.33;;;;;;;;;;5143603;27;20474;-77
2023/10/11 06:12:22;;;;;;;6.50;4.40;;;;;;;;;;5142304;27;20453;-78
2023/10/11 06:14:50;;;;;;;7.43;4.10;;;;;;;;;;5143630;27;20441;-77
2023/10/11 06:17:21;;;;;;;9.73;4.13;;;;;;;;;;5143688;27;20441;-77
2023/10/11 06:19:53;;;;;;;8.40;3.73;;;;;;;;;;5146929;27;20446;-76
2023/10/11 06:22:22;;;;;;;8.60;4.57;;;;;;;;;;5137311;27;20539;-78
2023/10/11 06:24:49;;;;;;;12.30;5.10;;;;;;;;;;5127784;28;20450;-78
2023/10/11 06:30:09;;;;;;;7.33;4.40;;;;;;;;;;5115066;28;20508;-77
2023/10/11 06:32:37;;;;;;;9.63;4.50;;;;;;;;;;5115487;28;20443;-78
2023/10/11 06:35:06;;;;;;;10.43;4.00;;;;;;;;;;5114966;28;20443;-78
2023/10/11 06:37:36;;;;;;;8.57;3.67;;;;;;;;;;5116185;28;20438;-77
2023/10/11 06:40:13;;;;;;;7.93;4.10;;;;;;;;;;5115396;28;20540;-77
2023/10/11 06:42:42;;;;;;;7.60;4.70;;;;;;;;;;5118911;28;20665;-78
2023/10/11 06:45:16;;;;;;;7.60;4.63;;;;;;;;;;5122801;28;20446;-78
2023/10/11 06:47:49;;;;;;;8.90;5.10;;;;;;;;;;5119422;28;20450;-78
2023/10/11 06:50:18;;;;;;;7.17;4.37;;;;;;;;;;5117427;28;20548;-77
2023/10/11 06:52:50;;;;;;;7.60;4.33;;;;;;;;;;5095598;28;20632;-77
2023/10/11 06:55:22;;;;;;;8.10;4.00;;;;;;;;;;5097442;28;20439;-76
2023/10/11 06:57:54;;;;;;;13.30;4.03;;;;;;;;;;5108538;27;20454;-78
2023/10/11 07:00:23;;;;;;;9.03;4.73;;;;;;;;;;5123471;27;20454;-77
2023/10/11 07:02:52;;;;;;;7.53;4.93;;;;;;;;;;5121044;27;20474;-77
2023/10/11 07:05:20;;;;;;;6.90;4.30;;;;;;;;;;5131570;27;20458;-78
2023/10/11 07:07:49;;;;;;;10.00;4.37;;;;;;;;;;5115985;28;20557;-76
2023/10/11 07:10:29;;;;;;;8.80;4.10;;;;;;;;;;5123182;27;20470;-76
2023/10/11 07:13:06;;;;;;;10.50;4.47;;;;;;;;;;5136869;27;20453;-77
2023/10/11 07:15:38;;;;;;;6.20;3.40;;;;;;;;;;5132370;27;20466;-77
2023/10/11 07:18:08;;;;;;;7.00;4.30;;;;;;;;;;5109396;28;20514;-77
2023/10/11 07:20:49;;;;;;;11.40;4.90;;;;;;;;;;5116606;28;20451;-77
2023/10/11 07:23:21;;;;;;;7.73;4.20;;;;;;;;;;5117460;27;20510;-77
2023/10/11 07:25:59;;;;;;;7.70;3.90;;;;;;;;;;5116544;28;20447;-77
2023/10/11 07:28:36;;;;;;;9.00;4.10;;;;;;;;;;5115098;28;21108;-78
2023/10/11 07:31:04;;;;;;;6.50;3.87;;;;;;;;;;5114917;28;20481;-77
2023/10/11 07:33:31;;;;;;;9.90;4.50;;;;;;;;;;5112419;28;20485;-77
2023/10/11 07:35:59;;;;;;;8.80;4.60;;;;;;;;;;5118115;28;20486;-77
2023/10/11 07:38:34;;;;;;;8.27;4.70;;;;;;;;;;5119415;28;20434;-78
2023/10/11 07:41:06;;;;;;;7.90;4.23;;;;;;;;;;5126327;28;20727;-77
2023/10/11 07:43:42;;;;;;;7.30;4.10;;;;;;;;;;5122713;28;20451;-77
2023/10/11 07:46:09;;;;;;;8.53;4.20;;;;;;;;;;5121864;28;20455;-77
2023/10/11 07:48:39;;;;;;;13.30;4.87;;;;;;;;;;5127943;28;20466;-78
2023/10/11 07:51:09;;;;;;;14.10;4.97;;;;;;;;;;5121346;28;20637;-77
2023/10/11 07:53:38;;;;;;;8.27;4.30;;;;;;;;;;5098412;28;20462;-77
2023/10/11 07:56:09;;;;;;;9.37;4.57;;;;;;;;;;5096621;28;20487;-77
2023/10/11 07:58:44;;;;;;;8.93;4.20;;;;;;;;;;5098251;28;20447;-77
2023/10/11 08:01:25;;;;;;;9.07;4.23;;;;;;;;;;5106422;28;20439;-77
2023/10/11 08:03:53;;;;;;;9.53;4.73;;;;;;;;;;5109658;28;20460;-78
2023/10/11 08:06:27;;;;;;;7.47;3.30;;;;;;;;;;5103610;28;20459;-76
2023/10/11 08:12:07;;;;;;;7.53;4.13;;;;;;;;;;5097866;28;20866;-78
2023/10/11 08:14:45;;;;;;;10.83;4.63;;;;;;;;;;5101479;28;20458;-78
2023/10/11 08:17:15;;;;;;;7.03;4.53;;;;;;;;;;5100395;28;20436;-78
2023/10/11 08:19:44;;;;;;;8.03;4.20;;;;;;;;;;5093629;28;20455;-78
2023/10/11 08:22:14;;;;;;;11.23;4.37;;;;;;;;;;5097677;28;20648;-77
2023/10/11 08:24:59;;;;;;;9.53;5.50;;;;;;;;;;5097564;28;20524;-76
2023/10/11 08:27:28;;;;;;;9.57;5.73;;;;;;;;;;5108567;28;20809;-77
2023/10/11 08:30:07;;;;;;;10.73;5.07;;;;;;;;;;5116528;28;20806;-76
2023/10/11 08:32:42;;;;;;;7.47;3.97;;;;;;;;;;5119250;28;20455;-77
2023/10/11 08:35:11;;;;;;;6.47;4.57;;;;;;;;;;5119112;28;20645;-77
2023/10/11 08:37:42;;;;;;;7.90;3.77;;;;;;;;;;5112228;28;20446;-78
2023/10/11 08:40:23;;;;;;;6.57;4.40;;;;;;;;;;5115468;28;20455;-76
2023/10/11 08:42:59;;;;;;;7.63;4.40;;;;;;;;;;5116494;27;20453;-77
2023/10/11 08:45:33;;;;;;;13.07;6.03;;;;;;;;;;5117182;27;20485;-77
2023/10/11 08:48:05;;;;;;;8.83;4.17;;;;;;;;;;5101601;28;20486;-76
2023/10/11 08:50:35;;;;;;;6.87;3.90;;;;;;;;;;5096311;28;20495;-77
2023/10/11 08:53:07;;;;;;;7.07;4.67;;;;;;;;;;5096579;28;20443;-76
2023/10/11 08:55:37;;;;;;;10.63;6.30;;;;;;;;;;5100111;28;20479;-77
2023/10/11 08:58:27;;;;;;;8.30;4.23;;;;;;;;;;5105535;28;20464;-77
2023/10/11 09:00:56;;;;;;;7.70;4.33;;;;;;;;;;5104711;28;20571;-77
2023/10/11 09:03:26;;;;;;;9.27;5.03;;;;;;;;;;5118027;28;20492;-76
2023/10/11 09:06:03;;;;;;;12.33;3.50;;;;;;;;;;5121141;28;20805;-76
2023/10/11 09:08:35;;;;;;;10.00;4.57;;;;;;;;;;5105455;28;20460;-76
2023/10/11 09:11:12;;;;;;;8.60;4.20;;;;;;;;;;5096473;28;20505;-77
2023/10/11 09:13:44;;;;;;;11.00;5.37;;;;;;;;;;5104823;28;20508;-78
2023/10/11 09:16:34;;;;;;;12.10;3.83;;;;;;;;;;5108694;28;20458;-77
2023/10/11 09:19:11;;;;;;;9.03;4.20;;;;;;;;;;5103830;28;20515;-77
2023/10/11 09:21:42;;;;;;;9.90;5.37;;;;;;;;;;5119699;28;20450;-76
2023/10/11 09:24:38;;;;;;;8.00;4.47;;;;;;;;;;5111530;28;20462;-75
2023/10/11 09:27:18;;;;;;;8.80;5.47;;;;;;;;;;5097887;28;20486;-77
2023/10/11 09:29:46;;;;;;;9.60;5.23;;;;;;;;;;5100641;28;20552;-77
2023/10/11 09:32:19;;;;;;;8.00;4.00;;;;;;;;;;5097182;28;20539;-77
2023/10/11 09:34:54;;;;;;;6.60;4.47;;;;;;;;;;5105425;28;20588;-77
2023/10/11 09:37:21;;;;;;;11.63;4.67;;;;;;;;;;5120393;28;20430;-77
2023/10/11 09:39:51;;;;;;;8.70;4.37;;;;;;;;;;5118264;28;20490;-77
2023/10/11 09:42:22;;;;;;;6.80;3.90;;;;;;;;;;5106916;28;20640;-77
2023/10/11 09:44:57;;;;;;;8.07;4.43;;;;;;;;;;5103206;28;20582;-76
2023/10/11 09:47:31;;;;;;;7.47;4.80;;;;;;;;;;5104988;28;20466;-76
2023/10/11 09:50:06;;;;;;;6.57;3.90;;;;;;;;;;5102632;28;20490;-76
2023/10/11 09:52:35;;;;;;;8.40;5.30;;;;;;;;;;5117315;28;20474;-77
2023/10/11 09:55:08;;;;;;;9.43;3.70;;;;;;;;;;5104604;28;20493;-77
2023/10/11 09:57:47;;;;;;;6.77;3.80;;;;;;;;;;5110064;28;20463;-77
2023/10/11 10:00:25;;;;;;;10.40;4.20;;;;;;;;;;5102155;28;20454;-77
2023/10/11 10:02:57;;;;;;;9.77;4.33;;;;;;;;;;5111268;28;20488;-78
2023/10/11 10:06:00;;;;;;;7.53;4.50;;;;;;;;;;5122091;28;20478;-79
2023/10/11 10:08:30;;;;;;;6.27;3.33;;;;;;;;;;5115556;28;20463;-77
2023/10/11 10:10:58;;;;;;;9.30;3.97;;;;;;;;;;5129232;28;20481;-78
2023/10/11 10:13:26;;;;;;;7.77;4.30;;;;;;;;;;5123739;28;20541;-78
2023/10/11 10:15:57;;;;;;;7.37;4.17;;;;;;;;;;5126886;28;20451;-80
2023/10/11 10:18:27;;;;;;;7.00;4.20;;;;;;;;;;5131165;28;20467;-79
2023/10/11 10:21:05;;;;;;;9.70;4.50;;;;;;;;;;5132034;28;20495;-78
2023/10/11 10:23:40;;;;;;;7.57;3.80;;;;;;;;;;5127187;28;20455;-76
2023/10/11 10:26:38;;;;;;;6.10;4.17;;;;;;;;;;5100687;28;20451;-78
2023/10/11 10:29:11;;;;;;;6.83;3.87;;;;;;;;;;5094863;28;21051;-78
2023/10/11 10:31:54;;;;;;;7.60;4.27;;;;;;;;;;5110482;28;20882;-78
2023/10/11 10:34:41;;;;;;;6.47;3.70;;;;;;;;;;5107438;28;20508;-78
2023/10/11 10:37:42;;;;;;;8.50;3.67;;;;;;;;;;5103150;28;20463;-79
2023/10/11 10:40:26;;;;;;;9.13;4.80;;;;;;;;;;5099947;28;20500;-79
2023/10/11 10:43:19;;;;;;;7.83;4.17;;;;;;;;;;5100009;28;20466;-79
2023/10/11 10:45:48;;;;;;;9.00;4.40;;;;;;;;;;5106105;28;20536;-79
2023/10/11 10:48:19;;;;;;;5.63;3.83;;;;;;;;;;5109319;28;20456;-78
2023/10/11 10:50:49;;;;;;;6.20;3.60;;;;;;;;;;5106642;28;20506;-79
2023/10/11 10:53:15;;;;;;;5.40;3.73;;;;;;;;;;5097435;28;20439;-77
2023/10/11 10:55:45;;;;;;;7.87;4.00;;;;;;;;;;5097140;28;20987;-78
2023/10/11 10:58:18;;;;;;;6.27;4.00;;;;;;;;;;5095247;28;20440;-78
2023/10/11 11:00:52;;;;;;;6.87;3.50;;;;;;;;;;5097972;28;20455;-78
2023/10/11 11:03:24;;;;;;;7.00;3.77;;;;;;;;;;5098497;28;20687;-78
2023/10/11 11:05:58;;;;;;;6.37;3.63;;;;;;;;;;5102552;28;20452;-78
2023/10/11 11:08:27;;;;;;;10.23;3.93;;;;;;;;;;5103040;28;20447;-78
2023/10/11 11:11:18;;;;;;;8.03;4.43;;;;;;;;;;5099144;28;20486;-78
2023/10/11 11:13:47;;;;;;;7.07;4.00;;;;;;;;;;5107614;28;20792;-78
2023/10/11 11:16:19;;;;;;;5.00;3.23;;;;;;;;;;5103661;28;20517;-77
2023/10/11 11:18:47;;;;;;;7.77;3.60;;;;;;;;;;5106922;28;20459;-80
2023/10/11 11:21:32;;;;;;;7.83;3.50;;;;;;;;;;5101457;28;20459;-78
2023/10/11 11:24:14;;;;;;;9.53;3.63;;;;;;;;;;5108130;28;20516;-78
2023/10/11 11:26:44;;;;;;;7.13;3.53;;;;;;;;;;5100666;28;20466;-78
2023/10/11 11:29:16;;;;;;;7.03;3.70;;;;;;;;;;5106043;28;20444;-78
2023/10/11 11:31:51;;;;;;;8.07;3.93;;;;;;;;;;5109803;28;20479;-78
2023/10/11 11:34:27;;;;;;;8.27;3.83;;;;;;;;;;5117715;28;20457;-79
2023/10/11 11:36:58;;;;;;;8.90;4.60;;;;;;;;;;5102132;28;20562;-77
2023/10/11 11:39:26;;;;;;;6.70;4.43;;;;;;;;;;5111645;28;20478;-77
2023/10/11 11:41:57;;;;;;;8.90;4.53;;;;;;;;;;5105378;28;20606;-77
2023/10/11 11:44:33;;;;;;;7.27;4.77;;;;;;;;;;5113929;28;20462;-78
2023/10/11 11:47:05;;;;;;;10.30;5.57;;;;;;;;;;5116562;28;20475;-77
2023/10/11 11:49:35;;;;;;;8.47;4.20;;;;;;;;;;5127569;28;20475;-77
2023/10/11 11:52:02;;;;;;;13.63;6.93;;;;;;;;;;5118572;28;20569;-77
2023/10/11 11:54:35;;;;;;;12.47;5.23;;;;;;;;;;5123362;28;20846;-77
2023/10/11 11:57:10;;;;;;;15.80;5.70;;;;;;;;;;5109115;28;20467;-78
2023/10/11 12:02:40;;;;;;;9.83;5.73;;;;;;;;;;5102191;28;20980;-77
2023/10/11 12:05:10;;;;;;;8.90;5.07;;;;;;;;;;5106783;28;20451;-78
2023/10/11 12:07:40;;;;;;;8.03;5.73;;;;;;;;;;5106458;28;20458;-78
2023/10/11 12:10:11;;;;;;;9.97;4.93;;;;;;;;;;5109858;28;20455;-78
2023/10/11 12:12:54;;;;;;;9.50;5.90;;;;;;;;;;5109308;28;20456;-80
2023/10/11 12:15:24;;;;;;;6.80;5.10;;;;;;;;;;5110363;28;20456;-80
2023/10/11 12:17:54;;;;;;;10.27;5.50;;;;;;;;;;5110585;28;20455;-79
2023/10/11 12:20:27;;;;;;;8.83;5.30;;;;;;;;;;5101055;28;20472;-79
2023/10/11 12:23:07;;;;;;;11.63;5.37;;;;;;;;;;5102730;28;20485;-79
2023/10/11 12:25:36;;;;;;;10.87;6.60;;;;;;;;;;5106155;28;20451;-79
2023/10/11 12:28:06;;;;;;;10.27;6.00;;;;;;;;;;5107844;28;20449;-78
2023/10/11 12:30:35;;;;;;;14.90;6.43;;;;;;;;;;5109296;28;20554;-79
2023/10/11 12:33:06;;;;;;;13.20;5.70;;;;;;;;;;5123456;27;20492;-78
2023/10/11 12:35:35;;;;;;;9.70;6.07;;;;;;;;;;5145995;27;20470;-78
2023/10/11 12:38:05;;;;;;;9.07;5.30;;;;;;;;;;5121099;27;20480;-78
2023/10/11 12:40:34;;;;;;;7.90;5.27;;;;;;;;;;5099723;28;20458;-78
2023/10/11 12:43:07;;;;;;;8.90;6.20;;;;;;;;;;5111037;28;20459;-79
2023/10/11 12:45:42;;;;;;;14.70;5.53;;;;;;;;;;5118779;28;20485;-79
2023/10/11 12:48:10;;;;;;;8.40;6.07;;;;;;;;;;5109437;28;20454;-78
2023/10/11 12:50:38;;;;;;;11.90;5.70;;;;;;;;;;5100224;28;21077;-77
2023/10/11 12:53:10;;;;;;;8.80;5.57;;;;;;;;;;5106648;28;20459;-77
2023/10/11 12:55:41;;;;;;;10.03;6.20;;;;;;;;;;5106823;28;20489;-78
2023/10/11 12:58:11;;;;;;;9.10;6.10;;;;;;;;;;5103130;28;20471;-78
2023/10/11 13:00:51;;;;;;;10.67;6.40;;;;;;;;;;5120827;28;20948;-78
2023/10/11 13:03:25;;;;;;;7.33;5.50;;;;;;;;;;5101896;28;20758;-78
2023/10/11 13:06:03;;;;;;;10.93;5.70;;;;;;;;;;5109700;28;20450;-78
2023/10/11 13:08:33;;;;;;;7.33;5.57;;;;;;;;;;5108375;28;20550;-79
2023/10/11 13:11:01;;;;;;;7.33;5.80;;;;;;;;;;5120994;28;20567;-79
2023/10/11 13:13:28;;;;;;;8.30;6.40;;;;;;;;;;5120074;28;20452;-79
2023/10/11 13:16:00;;;;;;;11.63;7.23;;;;;;;;;;5104782;28;20524;-77
2023/10/11 13:18:28;;;;;;;8.90;5.67;;;;;;;;;;5108207;28;20458;-77
2023/10/11 13:20:57;;;;;;;10.80;5.87;;;;;;;;;;5098262;28;20459;-78
2023/10/11 13:23:30;;;;;;;12.23;6.23;;;;;;;;;;5103803;28;20470;-78
2023/10/11 13:26:06;;;;;;;6.90;5.37;;;;;;;;;;5099974;28;20494;-78
2023/10/11 13:28:34;;;;;;;10.00;5.40;;;;;;;;;;5096430;28;20498;-78
2023/10/11 13:31:04;;;;;;;6.17;5.00;;;;;;;;;;5108863;28;20474;-77
2023/10/11 13:33:35;;;;;;;7.60;6.10;;;;;;;;;;5113155;28;20948;-79
2023/10/11 13:36:03;;;;;;;7.70;4.40;;;;;;;;;;5103236;28;20451;-78
2023/10/11 13:38:31;;;;;;;7.80;5.80;;;;;;;;;;5110008;28;20880;-77
2023/10/11 13:41:00;;;;;;;9.17;5.83;;;;;;;;;;5117371;28;20462;-78
2023/10/11 13:43:27;;;;;;;7.97;5.20;;;;;;;;;;5106595;28;20564;-78
2023/10/11 13:46:01;;;;;;;10.03;5.37;;;;;;;;;;5111642;28;20513;-79
2023/10/11 13:48:37;;;;;;;12.10;7.53;;;;;;;;;;5102799;28;20444;-76
2023/10/11 13:51:06;;;;;;;10.67;6.33;;;;;;;;;;5090585;28;20490;-78
2023/10/11 13:53:41;;;;;;;12.13;6.47;;;;;;;;;;5072146;28;20514;-77
2023/10/11 13:56:16;;;;;;;9.90;5.73;;;;;;;;;;5076563;28;20463;-75
2023/10/11 13:58:49;;;;;;;10.03;5.70;;;;;;;;;;5070856;28;20453;-78
2023/10/11 14:04:12;;;;;;;8.10;5.57;;;;;;;;;;5068283;28;20634;-79
2023/10/11 14:06:45;;;;;;;9.40;6.20;;;;;;;;;;5077045;28;20483;-78
2023/10/11 14:09:27;;;;;;;6.93;4.93;;;;;;;;;;5081992;28;20441;-79
2023/10/11 14:11:55;;;;;;;10.77;5.43;;;;;;;;;;5083289;28;20476;-78
2023/10/11 14:14:39;;;;;;;9.63;5.60;;;;;;;;;;5081870;28;20494;-77
2023/10/11 14:17:38;;;;;;;7.70;4.93;;;;;;;;;;5077934;28;20483;-79
2023/10/11 14:20:25;;;;;;;8.07;5.40;;;;;;;;;;5088819;28;20728;-79
2023/10/11 14:23:32;;;;;;;7.57;4.90;;;;;;;;;;5090174;28;20464;-79
2023/10/11 14:26:04;;;;;;;6.70;4.17;;;;;;;;;;5079531;28;20554;-80
2023/10/11 14:28:32;;;;;;;6.73;4.47;;;;;;;;;;5063567;28;20453;-80
2023/10/11 14:30:59;;;;;;;7.43;4.73;;;;;;;;;;5076358;28;20474;-78
2023/10/11 14:33:27;;;;;;;8.30;5.17;;;;;;;;;;5086923;28;20461;-79
2023/10/11 14:35:58;;;;;;;11.23;4.30;;;;;;;;;;5069083;28;20448;-80
2023/10/11 14:38:26;;;;;;;6.60;4.47;;;;;;;;;;5067035;28;20457;-79
2023/10/11 14:40:54;;;;;;;6.07;4.23;;;;;;;;;;5064942;28;20457;-78
2023/10/11 14:43:24;;;;;;;6.20;4.20;;;;;;;;;;5065428;28;20497;-79
2023/10/11 14:45:55;;;;;;;9.40;4.93;;;;;;;;;;5064454;28;20457;-78
2023/10/11 14:48:23;;;;;;;7.10;5.20;;;;;;;;;;5064970;28;20525;-81
2023/10/11 14:50:54;;;;;;;6.33;4.20;;;;;;;;;;5101344;28;20498;-77
2023/10/11 14:53:24;;;;;;;10.13;4.27;;;;;;;;;;5111440;28;20486;-76
2023/10/11 14:55:54;;;;;;;6.83;4.03;;;;;;;;;;5114377;28;20451;-79
2023/10/11 14:58:24;;;;;;;7.57;4.60;;;;;;;;;;5111187;28;20468;-79
2023/10/11 15:00:53;;;;;;;6.63;3.90;;;;;;;;;;5129881;28;20515;-79
2023/10/11 15:03:24;;;;;;;8.97;5.10;;;;;;;;;;5128204;28;20513;-79
2023/10/11 15:05:52;;;;;;;5.33;4.03;;;;;;;;;;5115468;28;20492;-78
2023/10/11 15:08:19;;;;;;;11.70;5.07;;;;;;;;;;5130722;28;20465;-78
2023/10/11 15:10:49;;;;;;;10.10;6.23;;;;;;;;;;5127890;28;20457;-79
2023/10/11 15:13:16;;;;;;;8.07;5.10;;;;;;;;;;5116790;28;20757;-78
2023/10/11 15:15:50;;;;;;;8.10;4.10;;;;;;;;;;5124194;28;20537;-79
2023/10/11 15:18:22;;;;;;;11.00;6.20;;;;;;;;;;5107957;28;20505;-80
2023/10/11 15:20:50;;;;;;;7.07;4.63;;;;;;;;;;5104375;28;20885;-78
2023/10/11 15:23:21;;;;;;;9.57;4.60;;;;;;;;;;5118858;28;20534;-78
2023/10/11 15:26:10;;;;;;;7.10;3.17;;;;;;;;;;5107895;28;20447;-77
2023/10/11 15:28:40;;;;;;;8.80;5.80;;;;;;;;;;5110791;27;20458;-79
2023/10/11 15:31:08;;;;;;;13.00;5.40;;;;;;;;;;5107375;27;20456;-79
2023/10/11 15:33:37;;;;;;;9.50;4.87;;;;;;;;;;5105669;28;20470;-79
2023/10/11 15:36:07;;;;;;;6.70;4.53;;;;;;;;;;5107931;28;20784;-79
2023/10/11 15:38:36;;;;;;;14.33;6.27;;;;;;;;;;5104986;27;20455;-79
2023/10/11 15:41:17;;;;;;;11.20;5.50;;;;;;;;;;5110855;28;20454;-80
2023/10/11 15:43:46;;;;;;;10.10;4.43;;;;;;;;;;5119471;27;20691;-79
2023/10/11 15:46:14;;;;;;;9.17;5.87;;;;;;;;;;5112633;28;20520;-79
2023/10/11 15:48:41;;;;;;;7.67;4.60;;;;;;;;;;5136265;27;20450;-80
2023/10/11 15:51:15;;;;;;;8.17;5.40;;;;;;;;;;5128209;27;20565;-80
2023/10/11 15:53:43;;;;;;;9.10;5.70;;;;;;;;;;5117705;28;20482;-81
2023/10/11 15:56:15;;;;;;;8.43;5.30;;;;;;;;;;5115625;28;20467;-85
2023/10/11 15:58:44;;;;;;;6.47;4.50;;;;;;;;;;5122677;27;20482;-81
2023/10/11 16:01:18;;;;;;;9.83;6.20;;;;;;;;;;5125382;27;20504;-81
2023/10/11 16:03:56;;;;;;;11.30;4.60;;;;;;;;;;5116354;28;20482;-81
2023/10/11 16:06:25;;;;;;;8.20;4.47;;;;;;;;;;5120049;28;20523;-84
2023/10/11 16:08:57;;;;;;;7.77;5.03;;;;;;;;;;5110728;28;20519;-86
2023/10/11 16:11:30;;;;;;;7.53;6.03;;;;;;;;;;5108315;28;20470;-81
2023/10/11 16:14:00;;;;;;;11.00;5.17;;;;;;;;;;5127770;28;20475;-83
2023/10/11 16:16:34;;;;;;;10.40;5.13;;;;;;;;;;5130834;27;20480;-80
2023/10/11 16:19:20;;;;;;;11.30;5.50;;;;;;;;;;5136221;27;20467;-80
2023/10/11 16:21:49;;;;;;;9.90;5.30;;;;;;;;;;5133666;27;20451;-81
2023/10/11 16:24:17;;;;;;;8.57;5.23;;;;;;;;;;5117453;28;20515;-82
2023/10/11 16:26:53;;;;;;;9.10;5.40;;;;;;;;;;5108924;28;20487;-81
2023/10/11 16:29:31;;;;;;;14.67;6.20;;;;;;;;;;5111499;28;20454;-80
2023/10/11 16:31:59;;;;;;;7.37;4.93;;;;;;;;;;5134475;27;20503;-83
2023/10/11 16:34:36;;;;;;;9.57;4.90;;;;;;;;;;5127528;27;20450;-81
2023/10/11 16:37:08;;;;;;;9.27;5.63;;;;;;;;;;5093539;28;20442;-82
2023/10/11 16:39:43;;;;;;;9.63;6.07;;;;;;;;;;5118223;28;20459;-83
2023/10/11 16:42:16;;;;;;;11.47;5.97;;;;;;;;;;5120670;28;20499;-84
2023/10/11 16:44:46;;;;;;;9.93;5.30;;;;;;;;;;5107260;28;20447;-82
2023/10/11 16:47:19;;;;;;;10.90;6.13;;;;;;;;;;5109114;28;20495;-82
2023/10/11 16:49:47;;;;;;;8.47;5.63;;;;;;;;;;5110279;28;20498;-81
2023/10/11 16:52:16;;;;;;;8.60;5.50;;;;;;;;;;5122310;28;20510;-79
2023/10/11 16:54:45;;;;;;;11.93;7.43;;;;;;;;;;5122403;28;20451;-81
2023/10/11 16:57:19;;;;;;;8.43;5.90;;;;;;;;;;5109398;28;21183;-82
2023/10/11 16:59:47;;;;;;;10.90;5.67;;;;;;;;;;5103600;28;20515;-82
2023/10/11 17:02:14;;;;;;;12.97;7.57;;;;;;;;;;5102536;28;20452;-82
2023/10/11 17:04:42;;;;;;;11.37;5.77;;;;;;;;;;5103457;28;20491;-82
2023/10/11 17:07:11;;;;;;;11.03;6.10;;;;;;;;;;5101548;28;20444;-83
2023/10/11 17:09:38;;;;;;;8.63;5.97;;;;;;;;;;5101569;28;20517;-82
2023/10/11 17:12:10;;;;;;;9.73;5.60;;;;;;;;;;5115556;28;20580;-82
2023/10/11 17:14:42;;;;;;;11.27;6.43;;;;;;;;;;5124357;28;20459;-81
2023/10/11 17:17:17;;;;;;;11.77;5.90;;;;;;;;;;5122634;28;20513;-81
2023/10/11 17:19:46;;;;;;;11.47;6.20;;;;;;;;;;5113814;28;20453;-82
2023/10/11 17:22:14;;;;;;;10.13;7.37;;;;;;;;;;5121941;28;20795;-80
2023/10/11 17:24:42;;;;;;;14.87;6.93;;;;;;;;;;5122120;28;20450;-83
2023/10/11 17:27:09;;;;;;;9.70;4.80;;;;;;;;;;5118725;28;20455;-83
2023/10/11 17:29:37;;;;;;;7.10;5.60;;;;;;;;;;5119506;28;20451;-80
2023/10/11 17:32:07;;;;;;;9.33;6.47;;;;;;;;;;5120921;28;20573;-80
2023/10/11 17:34:35;;;;;;;8.37;5.33;;;;;;;;;;5119566;28;20470;-80
2023/10/11 17:37:02;;;;;;;10.23;6.13;;;;;;;;;;5120640;28;20454;-79
2023/10/11 17:39:31;;;;;;;11.77;5.47;;;;;;;;;;5121335;28;20447;-79
2023/10/11 17:41:59;;;;;;;13.67;5.90;;;;;;;;;;5119749;28;20441;-82
2023/10/11 17:44:45;;;;;;;12.37;5.73;;;;;;;;;;5120600;28;20476;-83
2023/10/11 17:47:14;;;;;;;9.80;5.67;;;;;;;;;;5106470;28;20937;-82
2023/10/11 17:49:42;;;;;;;8.83;5.80;;;;;;;;;;5115488;28;20479;-81
2023/10/11 17:52:11;;;;;;;9.50;5.80;;;;;;;;;;5111024;28;20495;-82
2023/10/11 17:54:42;;;;;;;11.83;8.00;;;;;;;;;;5112145;28;20636;-81
2023/10/11 17:57:10;;;;;;;10.10;6.77;;;;;;;;;;5114032;28;20821;-82
2023/10/11 17:59:37;;;;;;;10.20;6.20;;;;;;;;;;5123465;28;20458;-82
2023/10/11 18:02:06;;;;;;;8.63;5.47;;;;;;;;;;5124577;28;20439;-81
2023/10/11 18:04:35;;;;;;;8.00;5.67;;;;;;;;;;5124208;28;20447;-81
2023/10/11 18:07:04;;;;;;;9.43;6.00;;;;;;;;;;5124530;28;20443;-81
2023/10/11 18:09:32;;;;;;;8.13;5.37;;;;;;;;;;5121360;28;20525;-81
2023/10/11 18:11:59;;;;;;;8.10;5.40;;;;;;;;;;5126778;28;21020;-80
2023/10/11 18:14:34;;;;;;;9.30;5.23;;;;;;;;;;5124927;28;20454;-80
2023/10/11 18:17:01;;;;;;;11.00;5.47;;;;;;;;;;5117626;28;20515;-82
2023/10/11 18:19:40;;;;;;;11.63;6.00;;;;;;;;;;5122257;28;20439;-81
2023/10/11 18:22:09;;;;;;;10.63;6.07;;;;;;;;;;5120468;28;20544;-79
2023/10/11 18:24:39;;;;;;;10.33;6.90;;;;;;;;;;5102190;28;20494;-81
2023/10/11 18:27:06;;;;;;;10.00;6.27;;;;;;;;;;5100086;28;20462;-80
2023/10/11 18:29:34;;;;;;;10.90;5.80;;;;;;;;;;5102085;28;20455;-80
2023/10/11 18:32:01;;;;;;;6.50;4.97;;;;;;;;;;5104048;28;20436;-81
2023/10/11 18:34:32;;;;;;;9.23;5.63;;;;;;;;;;5105583;28;20443;-82
2023/10/11 18:37:00;;;;;;;10.80;5.90;;;;;;;;;;5108037;28;20455;-81
2023/10/11 18:39:29;;;;;;;11.73;6.27;;;;;;;;;;5105040;28;20458;-81
2023/10/11 18:41:56;;;;;;;8.87;5.17;;;;;;;;;;5104040;28;20471;-80
2023/10/11 18:44:24;;;;;;;7.67;5.20;;;;;;;;;;5104786;28;20503;-82
2023/10/11 18:46:51;;;;;;;11.47;6.70;;;;;;;;;;5104719;28;20447;-81
2023/10/11 18:49:19;;;;;;;12.07;6.30;;;;;;;;;;5104572;28;20521;-82
2023/10/11 18:51:47;;;;;;;10.27;5.23;;;;;;;;;;5104027;28;20482;-82
2023/10/11 18:54:16;;;;;;;9.37;5.70;;;;;;;;;;5107224;28;20494;-82
2023/10/11 18:56:45;;;;;;;10.17;4.73;;;;;;;;;;5106968;28;20467;-83
2023/10/11 18:59:12;;;;;;;9.63;5.03;;;;;;;;;;5103154;28;20447;-81
2023/10/11 19:01:40;;;;;;;11.37;5.60;;;;;;;;;;5100851;28;20451;-82
2023/10/11 19:04:08;;;;;;;7.80;5.20;;;;;;;;;;5100661;28;20448;-82
2023/10/11 19:06:35;;;;;;;8.20;4.50;;;;;;;;;;5102541;28;20479;-81
2023/10/11 19:09:06;;;;;;;9.97;6.27;;;;;;;;;;5101587;28;20471;-81
2023/10/11 19:11:36;;;;;;;9.23;6.13;;;;;;;;;;5094813;28;20504;-82
2023/10/11 19:14:05;;;;;;;7.27;4.87;;;;;;;;;;5096269;28;20518;-81
2023/10/11 19:16:33;;;;;;;10.17;5.90;;;;;;;;;;5099904;28;20448;-82
2023/10/11 19:19:00;;;;;;;10.90;4.30;;;;;;;;;;5099967;28;20493;-80
2023/10/11 19:21:28;;;;;;;11.03;6.17;;;;;;;;;;5100247;28;20539;-81
2023/10/11 19:23:55;;;;;;;7.53;4.23;;;;;;;;;;5102626;28;20447;-81
2023/10/11 19:26:24;;;;;;;10.47;5.60;;;;;;;;;;5102003;28;20550;-80
2023/10/11 19:28:52;;;;;;;7.13;4.80;;;;;;;;;;5098556;28;20471;-83
2023/10/11 19:31:22;;;;;;;8.07;5.50;;;;;;;;;;5102745;28;20452;-81
2023/10/11 19:33:50;;;;;;;13.13;7.30;;;;;;;;;;5102984;28;20511;-81
2023/10/11 19:36:18;;;;;;;12.17;4.87;;;;;;;;;;5098810;28;20835;-82
2023/10/11 19:38:46;;;;;;;10.13;5.10;;;;;;;;;;5097736;28;20460;-82
2023/10/11 19:41:13;;;;;;;9.70;4.87;;;;;;;;;;5107126;28;20512;-81
2023/10/11 19:43:41;;;;;;;7.40;4.00;;;;;;;;;;5098227;28;20450;-82
2023/10/11 19:46:08;;;;;;;7.43;4.80;;;;;;;;;;5101891;28;20929;-82
2023/10/11 19:48:37;;;;;;;7.43;4.57;;;;;;;;;;5102461;28;20540;-82
2023/10/11 19:51:07;;;;;;;6.70;3.90;;;;;;;;;;5106427;28;20471;-80
2023/10/11 19:53:35;;;;;;;9.13;4.43;;;;;;;;;;5100117;28;20939;-82
2023/10/11 19:56:09;;;;;;;7.03;4.87;;;;;;;;;;5099269;28;20451;-84
2023/10/11 19:58:37;;;;;;;9.47;4.27;;;;;;;;;;5103739;28;20481;-81
2023/10/11 20:01:07;;;;;;;7.57;5.23;;;;;;;;;;5096877;28;20862;-82
2023/10/11 20:03:37;;;;;;;9.93;4.47;;;;;;;;;;5102282;28;20475;-83
2023/10/11 20:06:08;;;;;;;7.03;4.70;;;;;;;;;;5100857;28;20707;-82
2023/10/11 20:08:39;;;;;;;8.03;5.07;;;;;;;;;;5103200;28;20448;-80
2023/10/11 20:11:10;;;;;;;9.40;4.90;;;;;;;;;;5100490;28;20448;-83
2023/10/11 20:13:37;;;;;;;8.60;5.10;;;;;;;;;;5093168;28;20749;-80
2023/10/11 20:16:11;;;;;;;10.20;5.70;;;;;;;;;;5099155;28;20458;-83
2023/10/11 20:18:40;;;;;;;9.73;5.10;;;;;;;;;;5100815;28;20455;-82
2023/10/11 20:21:09;;;;;;;9.77;7.10;;;;;;;;;;5102654;28;20526;-82